createdAt,value
2022-12-25T00:01:33.918Z,10.15
2022-12-25T00:04:01.866Z,10.15
2022-12-25T00:06:29.422Z,10.77
2022-12-25T00:08:57.047Z,13.88
2022-12-25T00:11:24.938Z,10.38
2022-12-25T00:13:52.474Z,10.60
2022-12-25T00:16:24.855Z,11.80
2022-12-25T00:18:53.685Z,9.87
2022-12-25T00:21:22.343Z,13.90
2022-12-25T00:23:54.560Z,9.82
2022-12-25T00:26:22.822Z,11.80
2022-12-25T00:28:57.896Z,12.05
2022-12-25T00:31:25.907Z,9.67
2022-12-25T00:33:54.330Z,8.05
2022-12-25T00:36:25.335Z,8.75
2022-12-25T00:38:53.172Z,10.27
2022-12-25T00:41:43.162Z,12.07
2022-12-25T00:44:13.597Z,9.57
2022-12-25T00:46:42.493Z,8.88
2022-12-25T00:49:11.552Z,9.43
2022-12-25T00:51:39.665Z,8.98
2022-12-25T00:54:07.370Z,9.45
2022-12-25T00:56:34.973Z,8.10
2022-12-25T00:59:02.858Z,11.23
2022-12-25T01:01:30.715Z,11.18
2022-12-25T01:03:58.708Z,8.05
2022-12-25T01:06:26.947Z,8.45
2022-12-25T01:09:13.255Z,10.83
2022-12-25T01:11:41.137Z,12.32
2022-12-25T01:14:09.134Z,9.98
2022-12-25T01:16:36.846Z,8.68
2022-12-25T01:19:04.926Z,11.63
2022-12-25T01:21:32.710Z,8.60
2022-12-25T01:24:00.203Z,10.15
2022-12-25T01:26:29.236Z,11.65
2022-12-25T01:28:57.944Z,8.77
2022-12-25T01:31:26.313Z,8.95
2022-12-25T01:33:54.247Z,7.20
2022-12-25T01:36:23.844Z,11.48
2022-12-25T01:38:53.125Z,7.15
2022-12-25T01:41:24.552Z,7.05
2022-12-25T01:44:15.525Z,9.98
2022-12-25T01:46:43.725Z,11.67
2022-12-25T01:49:15.315Z,10.85
2022-12-25T01:52:24.193Z,8.70
2022-12-25T01:55:00.531Z,8.60
2022-12-25T01:57:31.271Z,10.18
2022-12-25T01:59:59.420Z,9.50
2022-12-25T02:02:28.123Z,10.68
2022-12-25T02:05:01.723Z,10.60
2022-12-25T02:07:29.954Z,11.45
2022-12-25T02:09:57.903Z,8.05
2022-12-25T02:12:28.284Z,6.87
2022-12-25T02:15:04.927Z,8.57
2022-12-25T02:17:38.841Z,8.75
2022-12-25T02:20:28.499Z,8.85
2022-12-25T02:23:17.404Z,9.45
2022-12-25T02:26:22.530Z,7.53
2022-12-25T02:29:07.824Z,7.50
2022-12-25T02:31:35.306Z,8.05
2022-12-25T02:34:11.012Z,8.77
2022-12-25T02:36:44.572Z,9.30
2022-12-25T02:39:43.480Z,10.17
2022-12-25T02:42:15.233Z,9.63
2022-12-25T02:45:04.493Z,9.20
2022-12-25T02:47:51.004Z,10.20
2022-12-25T02:50:37.900Z,9.32
2022-12-25T02:53:25.144Z,8.50
2022-12-25T02:56:11.537Z,6.78
2022-12-25T02:58:58.242Z,6.93
2022-12-25T03:01:47.981Z,12.55
2022-12-25T03:04:37.903Z,8.02
2022-12-25T03:07:12.299Z,7.33
2022-12-25T03:10:01.124Z,5.72
2022-12-25T03:12:38.529Z,8.10
2022-12-25T03:15:26.101Z,9.45
2022-12-25T03:17:56.415Z,8.77
2022-12-25T03:20:42.701Z,6.63
2022-12-25T03:23:31.141Z,8.93
2022-12-25T03:26:17.285Z,7.68
2022-12-25T03:28:45.349Z,8.75
2022-12-25T03:31:17.312Z,10.55
2022-12-25T03:34:28.569Z,8.63
2022-12-25T03:37:29.868Z,7.53
2022-12-25T03:40:27.585Z,8.13
2022-12-25T03:43:56.254Z,7.25
2022-12-25T03:46:44.645Z,10.25
2022-12-25T03:49:41.068Z,7.77
2022-12-25T03:52:31.167Z,9.85
2022-12-25T03:55:19.370Z,10.82
2022-12-25T03:58:05.753Z,8.45
2022-12-25T04:00:51.782Z,11.27
2022-12-25T04:03:38.351Z,10.67
2022-12-25T04:06:24.398Z,10.00
2022-12-25T04:09:10.802Z,9.73
2022-12-25T04:12:02.234Z,8.15
2022-12-25T04:14:51.067Z,8.35
2022-12-25T04:17:36.871Z,8.03
2022-12-25T04:20:23.862Z,11.90
2022-12-25T04:23:23.796Z,9.70
2022-12-25T04:26:10.414Z,7.97
2022-12-25T04:28:56.617Z,9.00
2022-12-25T04:31:42.891Z,7.60
2022-12-25T04:34:28.594Z,8.88
2022-12-25T04:36:56.471Z,6.55
2022-12-25T04:39:24.036Z,7.95
2022-12-25T04:41:51.628Z,8.43
2022-12-25T04:44:19.379Z,7.57
2022-12-25T04:46:46.889Z,9.82
2022-12-25T04:49:14.503Z,6.82
2022-12-25T04:51:42.357Z,8.43
2022-12-25T04:54:09.863Z,7.97
2022-12-25T04:56:43.499Z,9.30
2022-12-25T04:59:13.520Z,6.72
2022-12-25T05:01:41.269Z,5.32
2022-12-25T05:04:08.871Z,7.60
2022-12-25T05:06:36.593Z,8.70
2022-12-25T05:09:04.198Z,8.60
2022-12-25T05:11:31.842Z,7.93
2022-12-25T05:13:59.643Z,9.18
2022-12-25T05:16:27.513Z,10.13
2022-12-25T05:18:55.264Z,9.52
2022-12-25T05:21:23.515Z,8.87
2022-12-25T05:23:52.161Z,8.82
2022-12-25T05:26:22.589Z,8.52
2022-12-25T05:28:50.397Z,9.48
2022-12-25T05:31:18.998Z,9.32
2022-12-25T05:33:49.668Z,10.33
2022-12-25T05:36:17.506Z,7.22
2022-12-25T05:38:44.986Z,8.88
2022-12-25T05:41:12.943Z,9.95
2022-12-25T05:43:40.748Z,10.82
2022-12-25T05:46:09.695Z,8.00
2022-12-25T05:48:38.389Z,8.63
2022-12-25T05:51:08.390Z,9.80
2022-12-25T05:53:36.400Z,10.60
2022-12-25T05:56:06.591Z,11.95
2022-12-25T05:58:36.296Z,9.43
2022-12-25T06:01:04.928Z,9.35
2022-12-25T06:03:32.877Z,10.50
2022-12-25T06:06:02.995Z,8.20
2022-12-25T06:08:30.534Z,7.35
2022-12-25T06:10:58.312Z,11.23
2022-12-25T06:13:25.899Z,16.42
2022-12-25T06:15:53.468Z,12.95
2022-12-25T06:18:21.227Z,12.23
2022-12-25T06:20:49.069Z,13.60
2022-12-25T06:23:16.682Z,9.87
2022-12-25T06:25:44.503Z,8.70
2022-12-25T06:28:12.045Z,9.88
2022-12-25T06:30:39.631Z,8.07
2022-12-25T06:33:07.422Z,8.60
2022-12-25T06:35:34.929Z,28.13
2022-12-25T06:38:02.538Z,42.47
2022-12-25T06:40:30.391Z,26.48
2022-12-25T06:42:57.980Z,21.05
2022-12-25T06:45:25.588Z,13.10
2022-12-25T06:47:53.490Z,11.87
2022-12-25T06:50:21.035Z,10.75
2022-12-25T06:52:48.519Z,11.10
2022-12-25T06:55:16.388Z,15.55
2022-12-25T06:57:44.040Z,14.23
2022-12-25T07:00:12.086Z,13.03
2022-12-25T07:02:42.111Z,14.23
2022-12-25T07:05:09.711Z,16.30
2022-12-25T07:07:37.367Z,19.02
2022-12-25T07:10:05.641Z,14.45
2022-12-25T07:12:33.354Z,15.10
2022-12-25T07:15:02.438Z,12.65
2022-12-25T07:17:30.314Z,10.63
2022-12-25T07:19:57.930Z,11.18
2022-12-25T07:22:25.434Z,11.50
2022-12-25T07:24:53.162Z,16.13
2022-12-25T07:27:20.770Z,12.37
2022-12-25T07:29:48.304Z,12.23
2022-12-25T07:32:16.143Z,27.90
2022-12-25T07:34:43.742Z,23.50
2022-12-25T07:37:11.430Z,29.00
2022-12-25T07:39:39.275Z,21.85
2022-12-25T07:42:07.389Z,25.90
2022-12-25T07:44:34.944Z,23.70
2022-12-25T07:47:02.792Z,28.40
2022-12-25T07:49:30.404Z,32.10
2022-12-25T07:51:58.232Z,37.70
2022-12-25T07:54:26.054Z,33.88
2022-12-25T07:56:53.650Z,30.02
2022-12-25T07:59:21.500Z,24.55
2022-12-25T08:01:50.548Z,27.90
2022-12-25T08:04:18.716Z,27.25
2022-12-25T08:06:48.567Z,23.75
2022-12-25T08:09:19.493Z,21.48
2022-12-25T08:11:47.637Z,21.67
2022-12-25T08:14:15.337Z,21.80
2022-12-25T08:16:43.320Z,26.75
2022-12-25T08:19:11.444Z,31.58
2022-12-25T08:21:38.985Z,40.83
2022-12-25T08:24:06.995Z,39.60
2022-12-25T08:26:34.513Z,38.43
2022-12-25T08:29:02.420Z,52.45
2022-12-25T08:31:31.181Z,50.85
2022-12-25T08:33:59.856Z,46.85
2022-12-25T08:36:27.847Z,47.47
2022-12-25T08:39:02.465Z,53.27
2022-12-25T08:41:31.848Z,55.65
2022-12-25T08:43:59.683Z,56.67
2022-12-25T08:46:27.323Z,51.70
2022-12-25T08:48:56.789Z,49.40
2022-12-25T08:51:25.714Z,46.33
2022-12-25T08:53:55.922Z,54.30
2022-12-25T08:56:23.758Z,52.33
2022-12-25T08:58:51.237Z,53.03
2022-12-25T09:01:18.858Z,41.40
2022-12-25T09:03:47.418Z,34.90
2022-12-25T09:06:16.386Z,35.75
2022-12-25T09:08:49.107Z,38.55
2022-12-25T09:11:18.840Z,43.05
2022-12-25T09:13:46.610Z,66.32
2022-12-25T09:16:17.629Z,57.43
2022-12-25T09:18:45.666Z,46.53
2022-12-25T09:21:14.468Z,42.78
2022-12-25T09:23:42.576Z,33.58
2022-12-25T09:26:12.706Z,32.33
2022-12-25T09:28:43.712Z,29.50
2022-12-25T09:31:14.791Z,27.70
2022-12-25T09:33:42.421Z,20.37
2022-12-25T09:36:10.982Z,20.80
2022-12-25T09:38:38.947Z,18.33
2022-12-25T09:41:37.471Z,11.80
2022-12-25T09:44:15.544Z,20.83
2022-12-25T09:46:51.420Z,20.17
2022-12-25T09:49:42.519Z,23.02
2022-12-25T09:52:17.250Z,18.60
2022-12-25T09:54:53.524Z,16.63
2022-12-25T09:57:21.015Z,17.58
2022-12-25T09:59:48.918Z,15.57
2022-12-25T10:02:37.091Z,14.40
2022-12-25T10:05:31.669Z,14.75
2022-12-25T10:08:05.314Z,26.37
2022-12-25T10:10:38.871Z,51.58
2022-12-25T10:13:38.093Z,102.22
2022-12-25T10:16:11.723Z,36.97
2022-12-25T10:18:45.631Z,21.45
2022-12-25T10:21:15.232Z,24.60
2022-12-25T10:23:58.055Z,34.53
2022-12-25T10:26:26.319Z,43.22
2022-12-25T10:28:57.869Z,39.90
2022-12-25T10:31:29.843Z,33.50
2022-12-25T10:33:58.036Z,33.80
2022-12-25T10:36:28.784Z,29.40
2022-12-25T10:38:57.233Z,34.17
2022-12-25T10:41:34.357Z,41.22
2022-12-25T10:44:20.191Z,45.97
2022-12-25T10:46:49.531Z,40.60
2022-12-25T10:49:20.762Z,36.90
2022-12-25T10:51:48.377Z,31.52
2022-12-25T10:54:27.493Z,23.55
2022-12-25T10:57:04.691Z,27.10
2022-12-25T10:59:42.848Z,25.07
2022-12-25T11:02:36.317Z,24.45
2022-12-25T11:05:09.690Z,14.95
2022-12-25T11:07:51.320Z,12.68
2022-12-25T11:10:44.003Z,12.75
2022-12-25T11:13:20.216Z,11.43
2022-12-25T11:16:09.437Z,22.20
2022-12-25T11:18:56.368Z,21.05
2022-12-25T11:21:32.956Z,14.73
2022-12-25T11:24:05.927Z,11.23
2022-12-25T11:26:50.484Z,13.23
2022-12-25T11:29:47.485Z,11.18
2022-12-25T11:32:38.165Z,9.30
2022-12-25T11:35:13.193Z,22.48
2022-12-25T11:37:48.397Z,16.05
2022-12-25T11:40:19.080Z,46.23
2022-12-25T11:42:52.599Z,19.60
2022-12-25T11:45:32.219Z,6.55
2022-12-25T11:48:10.831Z,19.17
2022-12-25T11:50:42.332Z,8.20
2022-12-25T11:53:30.122Z,9.07
2022-12-25T11:56:05.988Z,14.55
2022-12-25T11:58:36.752Z,11.73
2022-12-25T12:01:33.910Z,8.93
2022-12-25T12:04:04.072Z,10.57
2022-12-25T12:06:51.889Z,15.63
2022-12-25T12:09:50.102Z,13.85
2022-12-25T12:12:22.460Z,13.35
2022-12-25T12:15:17.510Z,12.52
2022-12-25T12:17:45.077Z,25.70
2022-12-25T12:20:26.363Z,21.07
2022-12-25T12:22:54.006Z,20.10
2022-12-25T12:25:22.855Z,16.15
2022-12-25T12:28:04.508Z,12.07
2022-12-25T12:30:35.537Z,9.95
2022-12-25T12:33:05.770Z,8.33
2022-12-25T12:35:36.494Z,9.32
2022-12-25T12:38:13.280Z,10.35
2022-12-25T12:40:42.072Z,13.00
2022-12-25T12:43:41.935Z,11.25
2022-12-25T12:46:16.060Z,14.93
2022-12-25T12:48:46.363Z,14.60
2022-12-25T12:51:27.783Z,17.33
2022-12-25T12:54:21.348Z,11.65
2022-12-25T12:57:00.328Z,10.85
2022-12-25T12:59:44.501Z,10.97
2022-12-25T13:02:33.787Z,11.23
2022-12-25T13:05:07.236Z,14.20
2022-12-25T13:07:53.581Z,16.80
2022-12-25T13:10:36.724Z,13.88
2022-12-25T13:13:16.478Z,15.63
2022-12-25T13:15:46.631Z,14.10
2022-12-25T13:18:14.708Z,11.55
2022-12-25T13:20:56.941Z,7.62
2022-12-25T13:23:29.378Z,11.38
2022-12-25T13:25:59.871Z,9.47
2022-12-25T13:28:33.729Z,9.45
2022-12-25T13:31:03.042Z,10.43
2022-12-25T13:33:31.018Z,9.85
2022-12-25T13:35:58.661Z,10.93
2022-12-25T13:38:28.000Z,15.43
2022-12-25T13:41:15.395Z,17.12
2022-12-25T13:43:43.931Z,12.93
2022-12-25T13:46:14.003Z,17.50
2022-12-25T13:48:42.552Z,13.85
2022-12-25T13:51:15.952Z,15.40
2022-12-25T13:53:44.147Z,16.58
2022-12-25T13:56:16.247Z,21.42
2022-12-25T13:58:46.628Z,21.62
2022-12-25T14:01:16.043Z,21.00
2022-12-25T14:03:46.747Z,17.83
2022-12-25T14:06:25.305Z,15.88
2022-12-25T14:08:54.596Z,18.62
2022-12-25T14:11:25.935Z,15.25
2022-12-25T14:13:58.905Z,15.10
2022-12-25T14:16:26.981Z,14.10
2022-12-25T14:18:59.354Z,12.15
2022-12-25T14:21:38.438Z,13.15
2022-12-25T14:24:13.812Z,11.82
2022-12-25T14:26:41.368Z,13.80
2022-12-25T14:29:17.212Z,17.73
2022-12-25T14:31:46.344Z,17.02
2022-12-25T14:34:24.478Z,14.63
2022-12-25T14:36:52.800Z,16.95
2022-12-25T14:39:35.883Z,16.67
2022-12-25T14:42:14.039Z,16.30
2022-12-25T14:44:41.976Z,19.85
2022-12-25T14:47:19.935Z,20.37
2022-12-25T14:49:48.282Z,23.12
2022-12-25T14:52:23.341Z,18.60
2022-12-25T14:55:03.873Z,25.20
2022-12-25T14:57:34.736Z,22.02
2022-12-25T15:00:26.620Z,23.73
2022-12-25T15:02:56.213Z,27.52
2022-12-25T15:05:39.135Z,32.83
2022-12-25T15:08:11.127Z,34.03
2022-12-25T15:10:59.725Z,30.62
2022-12-25T15:13:28.717Z,26.92
2022-12-25T15:16:06.942Z,23.67
2022-12-25T15:18:38.920Z,26.12
2022-12-25T15:21:07.367Z,30.97
2022-12-25T15:23:34.899Z,30.25
2022-12-25T15:26:02.515Z,27.27
2022-12-25T15:28:30.571Z,27.45
2022-12-25T15:30:58.323Z,30.37
2022-12-25T15:33:25.990Z,31.17
2022-12-25T15:35:53.932Z,32.05
2022-12-25T15:38:21.492Z,31.73
2022-12-25T15:40:48.978Z,33.22
2022-12-25T15:46:05.568Z,34.90
2022-12-25T15:48:33.647Z,36.08
2022-12-25T15:51:01.082Z,37.67
2022-12-25T15:53:28.982Z,51.10
2022-12-25T15:55:57.082Z,59.45
2022-12-25T15:58:24.688Z,71.10
2022-12-25T16:00:52.203Z,60.85
2022-12-25T16:03:20.119Z,46.70
2022-12-25T16:05:47.794Z,57.83
2022-12-25T16:08:15.346Z,53.87
2022-12-25T16:10:43.134Z,45.40
2022-12-25T16:13:10.726Z,41.90
2022-12-25T16:15:38.235Z,44.53
2022-12-25T16:18:06.462Z,34.67
2022-12-25T16:20:35.380Z,35.00
2022-12-25T16:23:02.923Z,30.43
2022-12-25T16:25:30.816Z,35.95
2022-12-25T16:27:58.368Z,37.00
2022-12-25T16:30:25.932Z,37.88
2022-12-25T16:32:54.120Z,32.42
2022-12-25T16:35:21.711Z,41.17
2022-12-25T16:37:49.618Z,35.72
2022-12-25T16:40:18.101Z,39.63
2022-12-25T16:42:45.653Z,33.65
2022-12-25T16:45:13.244Z,39.17
2022-12-25T16:47:41.348Z,36.67
2022-12-25T16:50:09.513Z,38.60
2022-12-25T16:52:37.023Z,41.25
2022-12-25T16:55:05.408Z,39.42
2022-12-25T16:57:33.047Z,40.60
2022-12-25T17:00:01.058Z,35.70
2022-12-25T17:02:29.166Z,37.95
2022-12-25T17:04:56.943Z,37.17
2022-12-25T17:07:24.417Z,39.83
2022-12-25T17:09:52.277Z,53.05
2022-12-25T17:12:19.986Z,53.33
2022-12-25T17:14:47.511Z,81.25
2022-12-25T17:17:15.330Z,100.10
2022-12-25T17:19:45.096Z,56.67
2022-12-25T17:22:13.212Z,53.17
2022-12-25T17:24:41.659Z,52.30
2022-12-25T17:27:09.474Z,73.97
2022-12-25T17:29:39.816Z,48.10
2022-12-25T17:32:08.229Z,39.20
2022-12-25T17:34:36.048Z,37.33
2022-12-25T17:37:04.274Z,39.23
2022-12-25T17:39:32.318Z,39.72
2022-12-25T17:41:59.860Z,40.67
2022-12-25T17:44:27.470Z,46.22
2022-12-25T17:46:55.391Z,47.67
2022-12-25T17:49:23.432Z,42.83
2022-12-25T17:51:51.052Z,58.17
2022-12-25T17:54:19.018Z,56.55
2022-12-25T17:56:46.551Z,58.83
2022-12-25T17:59:18.479Z,62.10
2022-12-25T18:01:47.242Z,58.57
2022-12-25T18:04:15.191Z,61.33
2022-12-25T18:06:42.798Z,60.70
2022-12-25T18:09:11.333Z,60.17
2022-12-25T18:11:41.070Z,59.50
2022-12-25T18:14:12.549Z,65.00
2022-12-25T18:16:43.284Z,59.60
2022-12-25T18:19:11.823Z,62.45
2022-12-25T18:21:39.422Z,47.35
2022-12-25T18:24:07.949Z,58.35
2022-12-25T18:26:35.785Z,45.50
2022-12-25T18:29:03.835Z,46.83
2022-12-25T18:31:31.826Z,43.70
2022-12-25T18:34:00.211Z,46.88
2022-12-25T18:36:29.184Z,39.75
2022-12-25T18:38:58.067Z,40.00
2022-12-25T18:41:28.124Z,40.75
2022-12-25T18:43:56.275Z,40.45
2022-12-25T18:46:25.688Z,41.47
2022-12-25T18:48:57.246Z,39.15
2022-12-25T18:51:29.865Z,34.70
2022-12-25T18:54:02.685Z,35.60
2022-12-25T18:56:30.512Z,32.88
2022-12-25T18:59:01.569Z,28.48
2022-12-25T19:01:29.102Z,29.37
2022-12-25T19:04:04.680Z,30.27
2022-12-25T19:06:33.402Z,30.52
2022-12-25T19:09:08.773Z,30.48
2022-12-25T19:11:41.984Z,28.58
2022-12-25T19:14:14.228Z,29.27
2022-12-25T19:16:41.854Z,31.30
2022-12-25T19:19:09.452Z,27.60
2022-12-25T19:21:38.305Z,31.90
2022-12-25T19:24:06.309Z,33.30
2022-12-25T19:26:34.031Z,32.70
2022-12-25T19:29:02.694Z,29.60
2022-12-25T19:31:30.363Z,35.20
2022-12-25T19:33:57.894Z,30.27
2022-12-25T19:36:25.833Z,30.12
2022-12-25T19:38:53.735Z,30.55
2022-12-25T19:41:22.052Z,32.27
2022-12-25T19:43:50.360Z,33.85
2022-12-25T19:46:21.336Z,33.50
2022-12-25T19:48:49.023Z,32.45
2022-12-25T19:51:28.677Z,32.08
2022-12-25T19:53:56.599Z,36.37
2022-12-25T19:56:26.087Z,35.78
2022-12-25T19:58:54.068Z,32.95
2022-12-25T20:01:23.693Z,35.85
2022-12-25T20:03:51.886Z,32.45
2022-12-25T20:06:24.902Z,31.57
2022-12-25T20:08:54.662Z,37.78
2022-12-25T20:11:23.458Z,31.12
2022-12-25T20:13:51.277Z,32.72
2022-12-25T20:16:19.142Z,34.78
2022-12-25T20:18:46.862Z,33.13
2022-12-25T20:21:17.773Z,35.33
2022-12-25T20:23:47.769Z,36.47
2022-12-25T20:26:16.545Z,32.72
2022-12-25T20:28:44.604Z,34.03
2022-12-25T20:31:24.305Z,32.77
2022-12-25T20:33:51.988Z,38.47
2022-12-25T20:36:20.831Z,29.20
2022-12-25T20:38:49.040Z,36.10
2022-12-25T20:41:28.529Z,36.33
2022-12-25T20:43:57.387Z,31.83
2022-12-25T20:46:25.931Z,30.95
2022-12-25T20:48:54.925Z,31.87
2022-12-25T20:51:24.955Z,30.15
2022-12-25T20:53:53.304Z,35.15
2022-12-25T20:56:24.081Z,30.20
2022-12-25T20:58:56.360Z,32.47
2022-12-25T21:01:25.002Z,34.67
2022-12-25T21:03:53.450Z,31.12
2022-12-25T21:06:21.653Z,32.42
2022-12-25T21:08:49.648Z,29.90
2022-12-25T21:11:18.146Z,34.22
2022-12-25T21:13:46.267Z,32.75
2022-12-25T21:16:18.619Z,28.92
2022-12-25T21:18:47.387Z,32.53
2022-12-25T21:21:15.574Z,33.57
2022-12-25T21:23:43.160Z,30.00
2022-12-25T21:26:13.143Z,28.05
2022-12-25T21:28:41.357Z,29.92
2022-12-25T21:31:09.942Z,28.80
2022-12-25T21:33:53.694Z,27.50
2022-12-25T21:36:31.416Z,22.83
2022-12-25T21:39:05.505Z,27.48
2022-12-25T21:41:34.781Z,27.83
2022-12-25T21:44:02.721Z,29.80
2022-12-25T21:46:30.299Z,27.83
2022-12-25T21:48:58.772Z,27.83
2022-12-25T21:51:50.704Z,28.48
2022-12-25T21:54:20.299Z,28.73
2022-12-25T21:56:49.070Z,28.40
2022-12-25T21:59:18.959Z,26.50
2022-12-25T22:01:47.299Z,26.27
2022-12-25T22:04:16.514Z,25.45
2022-12-25T22:07:04.213Z,23.65
2022-12-25T22:09:32.178Z,22.83
2022-12-25T22:12:18.499Z,23.50
2022-12-25T22:14:57.133Z,22.35
2022-12-25T22:17:45.756Z,22.75
2022-12-25T22:20:18.468Z,25.12
2022-12-25T22:22:46.148Z,25.27
2022-12-25T22:25:14.453Z,26.60
2022-12-25T22:27:43.812Z,22.73
2022-12-25T22:30:17.966Z,23.30
2022-12-25T22:32:46.514Z,22.30
2022-12-25T22:35:15.273Z,21.95
2022-12-25T22:37:43.017Z,20.80
2022-12-25T22:40:14.435Z,22.95
2022-12-25T22:42:42.490Z,22.77
2022-12-25T22:45:10.535Z,22.70
2022-12-25T22:47:38.308Z,20.35
2022-12-25T22:50:06.485Z,21.90
2022-12-25T22:52:34.022Z,22.23
2022-12-25T22:55:02.603Z,23.90
2022-12-25T22:57:30.201Z,23.80
2022-12-25T22:59:57.774Z,22.85
2022-12-25T23:02:25.809Z,20.40
2022-12-25T23:04:53.767Z,20.77
2022-12-25T23:07:21.302Z,23.20
2022-12-25T23:09:49.282Z,22.65
2022-12-25T23:12:35.246Z,23.98
2022-12-25T23:15:03.022Z,26.50
2022-12-25T23:17:49.382Z,27.60
2022-12-25T23:20:35.731Z,24.15
2022-12-25T23:23:21.627Z,24.20
2022-12-25T23:26:07.586Z,21.35
2022-12-25T23:28:59.388Z,21.57
2022-12-25T23:31:31.733Z,23.70
2022-12-25T23:33:59.754Z,25.52
2022-12-25T23:36:28.226Z,25.88
2022-12-25T23:38:55.832Z,22.30
2022-12-25T23:41:23.342Z,21.60
2022-12-25T23:43:51.127Z,21.87
2022-12-25T23:46:18.746Z,21.67
2022-12-25T23:48:46.467Z,24.12
2022-12-25T23:51:14.317Z,25.23
2022-12-25T23:53:42.130Z,20.77
2022-12-25T23:56:10.672Z,23.08
2022-12-25T23:58:38.708Z,23.12
